sensor_id;sensor_type;location;lat;lon;timestamp;temperature;humidity
3156;DHT22;1588;50.892;7.082;2023-02-23T00:01:50;9.50;99.90
3156;DHT22;1588;50.892;7.082;2023-02-23T00:06:53;9.50;99.90
3156;DHT22;1588;50.892;7.082;2023-02-23T00:11:56;9.40;99.90
3156;DHT22;1588;50.892;7.082;2023-02-23T00:17:00;9.40;99.90
3156;DHT22;1588;50.892;7.082;2023-02-23T00:22:02;9.40;99.90
3156;DHT22;1588;50.892;7.082;2023-02-23T00:27:04;9.40;99.90
3156;DHT22;1588;50.892;7.082;2023-02-23T00:32:08;9.30;99.90
3156;DHT22;1588;50.892;7.082;2023-02-23T00:37:11;9.30;99.90
3156;DHT22;1588;50.892;7.082;2023-02-23T00:42:20;9.30;99.90
3156;DHT22;1588;50.892;7.082;2023-02-23T00:47:23;9.30;99.90
3156;DHT22;1588;50.892;7.082;2023-02-23T00:52:26;9.30;99.90
3156;DHT22;1588;50.892;7.082;2023-02-23T00:57:28;9.30;99.90
3156;DHT22;1588;50.892;7.082;2023-02-23T01:02:32;9.20;99.90
3156;DHT22;1588;50.892;7.082;2023-02-23T01:07:35;9.30;99.90
3156;DHT22;1588;50.892;7.082;2023-02-23T01:12:38;9.30;99.90
3156;DHT22;1588;50.892;7.082;2023-02-23T01:17:42;9.20;99.90
3156;DHT22;1588;50.892;7.082;2023-02-23T01:22:47;9.20;99.90
3156;DHT22;1588;50.892;7.082;2023-02-23T01:27:52;9.20;99.90
3156;DHT22;1588;50.892;7.082;2023-02-23T01:32:56;9.20;99.90
3156;DHT22;1588;50.892;7.082;2023-02-23T01:38:09;9.20;99.90
3156;DHT22;1588;50.892;7.082;2023-02-23T01:43:13;9.20;99.90
3156;DHT22;1588;50.892;7.082;2023-02-23T01:48:20;9.20;99.90
3156;DHT22;1588;50.892;7.082;2023-02-23T01:53:24;9.20;99.90
3156;DHT22;1588;50.892;7.082;2023-02-23T01:58:28;9.20;99.90
3156;DHT22;1588;50.892;7.082;2023-02-23T02:03:36;9.20;99.90
3156;DHT22;1588;50.892;7.082;2023-02-23T02:08:41;9.20;99.90
3156;DHT22;1588;50.892;7.082;2023-02-23T02:13:46;9.20;99.90
3156;DHT22;1588;50.892;7.082;2023-02-23T02:19:05;9.20;99.90
3156;DHT22;1588;50.892;7.082;2023-02-23T02:25:03;9.20;99.90
3156;DHT22;1588;50.892;7.082;2023-02-23T02:41:37;9.10;99.90
3156;DHT22;1588;50.892;7.082;2023-02-23T02:46:46;9.20;99.90
3156;DHT22;1588;50.892;7.082;2023-02-23T02:51:55;9.10;99.90
3156;DHT22;1588;50.892;7.082;2023-02-23T02:57:02;9.10;99.90
3156;DHT22;1588;50.892;7.082;2023-02-23T03:02:06;9.10;99.90
3156;DHT22;1588;50.892;7.082;2023-02-23T03:07:33;9.10;99.90
3156;DHT22;1588;50.892;7.082;2023-02-23T03:13:04;9.10;99.90
3156;DHT22;1588;50.892;7.082;2023-02-23T03:18:46;9.10;99.90
3156;DHT22;1588;50.892;7.082;2023-02-23T03:24:13;9.10;99.90
3156;DHT22;1588;50.892;7.082;2023-02-23T03:29:41;9.00;99.90
3156;DHT22;1588;50.892;7.082;2023-02-23T03:35:13;9.00;99.90
3156;DHT22;1588;50.892;7.082;2023-02-23T03:40:38;9.00;99.90
3156;DHT22;1588;50.892;7.082;2023-02-23T03:46:01;9.00;99.90
3156;DHT22;1588;50.892;7.082;2023-02-23T03:51:23;8.90;99.90
3156;DHT22;1588;50.892;7.082;2023-02-23T03:56:47;9.00;99.90
3156;DHT22;1588;50.892;7.082;2023-02-23T04:02:11;9.00;99.90
3156;DHT22;1588;50.892;7.082;2023-02-23T04:07:39;9.00;99.90
3156;DHT22;1588;50.892;7.082;2023-02-23T04:13:02;8.90;99.90
3156;DHT22;1588;50.892;7.082;2023-02-23T04:18:21;9.00;99.90
3156;DHT22;1588;50.892;7.082;2023-02-23T04:23:25;9.00;99.90
3156;DHT22;1588;50.892;7.082;2023-02-23T04:28:27;9.00;99.90
3156;DHT22;1588;50.892;7.082;2023-02-23T04:33:32;8.90;99.90
3156;DHT22;1588;50.892;7.082;2023-02-23T04:38:37;9.00;99.90
3156;DHT22;1588;50.892;7.082;2023-02-23T04:43:46;8.90;99.90
3156;DHT22;1588;50.892;7.082;2023-02-23T04:48:50;8.90;99.90
3156;DHT22;1588;50.892;7.082;2023-02-23T04:53:53;8.90;99.90
3156;DHT22;1588;50.892;7.082;2023-02-23T04:58:55;8.90;99.90
3156;DHT22;1588;50.892;7.082;2023-02-23T05:03:58;8.90;99.90
3156;DHT22;1588;50.892;7.082;2023-02-23T05:09:02;8.90;99.90
3156;DHT22;1588;50.892;7.082;2023-02-23T05:14:06;8.90;99.90
3156;DHT22;1588;50.892;7.082;2023-02-23T05:19:11;9.00;99.90
3156;DHT22;1588;50.892;7.082;2023-02-23T05:24:13;8.90;99.90
3156;DHT22;1588;50.892;7.082;2023-02-23T05:29:16;8.90;99.90
3156;DHT22;1588;50.892;7.082;2023-02-23T05:34:20;8.90;99.90
3156;DHT22;1588;50.892;7.082;2023-02-23T05:39:22;8.90;99.90
3156;DHT22;1588;50.892;7.082;2023-02-23T05:44:25;8.90;99.90
3156;DHT22;1588;50.892;7.082;2023-02-23T05:49:29;8.90;99.90
3156;DHT22;1588;50.892;7.082;2023-02-23T05:54:31;8.90;99.90
3156;DHT22;1588;50.892;7.082;2023-02-23T05:59:43;8.80;99.90
3156;DHT22;1588;50.892;7.082;2023-02-23T06:04:47;8.90;99.90
3156;DHT22;1588;50.892;7.082;2023-02-23T06:09:50;8.80;99.90
3156;DHT22;1588;50.892;7.082;2023-02-23T06:14:52;8.80;99.90
3156;DHT22;1588;50.892;7.082;2023-02-23T06:19:56;8.70;99.90
3156;DHT22;1588;50.892;7.082;2023-02-23T06:24:58;8.70;99.90
3156;DHT22;1588;50.892;7.082;2023-02-23T06:30:05;8.70;99.90
3156;DHT22;1588;50.892;7.082;2023-02-23T06:35:10;8.70;99.90
3156;DHT22;1588;50.892;7.082;2023-02-23T06:40:13;8.70;99.90
3156;DHT22;1588;50.892;7.082;2023-02-23T06:45:15;8.70;99.90
3156;DHT22;1588;50.892;7.082;2023-02-23T06:50:20;8.70;99.90
3156;DHT22;1588;50.892;7.082;2023-02-23T06:55:22;8.70;99.90
3156;DHT22;1588;50.892;7.082;2023-02-23T07:00:25;8.70;99.90
3156;DHT22;1588;50.892;7.082;2023-02-23T07:05:29;8.70;99.90
3156;DHT22;1588;50.892;7.082;2023-02-23T07:10:31;8.70;99.90
3156;DHT22;1588;50.892;7.082;2023-02-23T07:15:35;8.70;99.90
3156;DHT22;1588;50.892;7.082;2023-02-23T07:20:39;8.70;99.90
3156;DHT22;1588;50.892;7.082;2023-02-23T07:25:46;8.70;99.90
3156;DHT22;1588;50.892;7.082;2023-02-23T07:30:48;8.70;99.90
3156;DHT22;1588;50.892;7.082;2023-02-23T07:35:52;8.80;99.90
3156;DHT22;1588;50.892;7.082;2023-02-23T07:40:54;8.80;99.90
3156;DHT22;1588;50.892;7.082;2023-02-23T07:45:58;8.80;99.90
3156;DHT22;1588;50.892;7.082;2023-02-23T07:51:07;8.80;99.90
3156;DHT22;1588;50.892;7.082;2023-02-23T07:56:11;8.80;99.90
3156;DHT22;1588;50.892;7.082;2023-02-23T08:01:13;8.90;99.90
3156;DHT22;1588;50.892;7.082;2023-02-23T08:06:20;9.00;99.90
3156;DHT22;1588;50.892;7.082;2023-02-23T08:11:22;9.00;99.90
3156;DHT22;1588;50.892;7.082;2023-02-23T08:16:30;9.00;99.90
3156;DHT22;1588;50.892;7.082;2023-02-23T08:21:34;9.10;99.90
3156;DHT22;1588;50.892;7.082;2023-02-23T08:26:43;9.10;99.90
3156;DHT22;1588;50.892;7.082;2023-02-23T08:31:46;9.10;99.90
3156;DHT22;1588;50.892;7.082;2023-02-23T08:36:50;9.20;99.90
3156;DHT22;1588;50.892;7.082;2023-02-23T08:41:53;9.20;99.90
3156;DHT22;1588;50.892;7.082;2023-02-23T08:46:56;9.20;99.90
3156;DHT22;1588;50.892;7.082;2023-02-23T08:52:00;9.30;99.90
3156;DHT22;1588;50.892;7.082;2023-02-23T08:57:03;9.30;99.90
3156;DHT22;1588;50.892;7.082;2023-02-23T09:02:08;9.40;99.90
3156;DHT22;1588;50.892;7.082;2023-02-23T09:07:15;9.30;99.90
3156;DHT22;1588;50.892;7.082;2023-02-23T09:12:18;9.30;99.90
3156;DHT22;1588;50.892;7.082;2023-02-23T09:17:21;9.20;99.90
3156;DHT22;1588;50.892;7.082;2023-02-23T09:22:25;9.30;99.90
3156;DHT22;1588;50.892;7.082;2023-02-23T09:27:27;9.50;99.90
3156;DHT22;1588;50.892;7.082;2023-02-23T09:32:30;9.50;99.90
3156;DHT22;1588;50.892;7.082;2023-02-23T09:37:34;9.60;99.90
3156;DHT22;1588;50.892;7.082;2023-02-23T09:42:41;9.50;99.90
3156;DHT22;1588;50.892;7.082;2023-02-23T09:47:56;9.40;99.90
3156;DHT22;1588;50.892;7.082;2023-02-23T09:53:06;9.30;99.90
3156;DHT22;1588;50.892;7.082;2023-02-23T09:58:16;9.40;99.90
3156;DHT22;1588;50.892;7.082;2023-02-23T10:03:25;9.50;99.90
3156;DHT22;1588;50.892;7.082;2023-02-23T10:08:41;9.70;99.90
3156;DHT22;1588;50.892;7.082;2023-02-23T10:13:54;9.60;99.90
3156;DHT22;1588;50.892;7.082;2023-02-23T10:19:02;9.60;99.90
3156;DHT22;1588;50.892;7.082;2023-02-23T10:24:13;9.50;99.90
3156;DHT22;1588;50.892;7.082;2023-02-23T10:29:22;9.60;99.90
3156;DHT22;1588;50.892;7.082;2023-02-23T10:34:27;9.70;99.90
3156;DHT22;1588;50.892;7.082;2023-02-23T10:39:32;9.70;99.90
3156;DHT22;1588;50.892;7.082;2023-02-23T10:44:35;9.70;99.90
3156;DHT22;1588;50.892;7.082;2023-02-23T10:49:40;9.60;99.90
3156;DHT22;1588;50.892;7.082;2023-02-23T10:54:47;9.70;99.90
3156;DHT22;1588;50.892;7.082;2023-02-23T11:00:21;9.70;99.90
3156;DHT22;1588;50.892;7.082;2023-02-23T11:05:34;9.80;99.90
3156;DHT22;1588;50.892;7.082;2023-02-23T11:10:39;9.70;99.90
3156;DHT22;1588;50.892;7.082;2023-02-23T11:15:42;9.70;99.90
3156;DHT22;1588;50.892;7.082;2023-02-23T11:20:44;9.70;99.90
3156;DHT22;1588;50.892;7.082;2023-02-23T11:25:51;9.70;99.90
3156;DHT22;1588;50.892;7.082;2023-02-23T11:30:57;9.80;99.90
3156;DHT22;1588;50.892;7.082;2023-02-23T11:36:25;9.70;99.90
3156;DHT22;1588;50.892;7.082;2023-02-23T11:41:29;9.60;99.90
3156;DHT22;1588;50.892;7.082;2023-02-23T11:46:35;9.60;99.90
3156;DHT22;1588;50.892;7.082;2023-02-23T11:51:40;9.50;99.90
3156;DHT22;1588;50.892;7.082;2023-02-23T11:56:48;9.60;99.90
3156;DHT22;1588;50.892;7.082;2023-02-23T12:01:53;9.80;99.90
3156;DHT22;1588;50.892;7.082;2023-02-23T12:07:20;9.90;99.90
3156;DHT22;1588;50.892;7.082;2023-02-23T12:12:27;9.80;99.90
3156;DHT22;1588;50.892;7.082;2023-02-23T12:17:34;9.80;99.90
3156;DHT22;1588;50.892;7.082;2023-02-23T12:22:54;9.80;99.90
3156;DHT22;1588;50.892;7.082;2023-02-23T12:28:03;9.60;99.90
3156;DHT22;1588;50.892;7.082;2023-02-23T12:33:11;9.60;99.90
3156;DHT22;1588;50.892;7.082;2023-02-23T12:38:21;9.50;99.90
3156;DHT22;1588;50.892;7.082;2023-02-23T12:43:35;9.60;99.90
3156;DHT22;1588;50.892;7.082;2023-02-23T12:48:47;9.50;99.90
3156;DHT22;1588;50.892;7.082;2023-02-23T12:53:51;9.40;99.90
3156;DHT22;1588;50.892;7.082;2023-02-23T12:59:02;9.30;99.90
3156;DHT22;1588;50.892;7.082;2023-02-23T13:04:26;9.30;99.90
3156;DHT22;1588;50.892;7.082;2023-02-23T13:09:42;9.30;99.90
3156;DHT22;1588;50.892;7.082;2023-02-23T13:14:54;9.30;99.90
3156;DHT22;1588;50.892;7.082;2023-02-23T13:20:02;9.30;99.90
3156;DHT22;1588;50.892;7.082;2023-02-23T13:25:24;9.30;99.90
3156;DHT22;1588;50.892;7.082;2023-02-23T13:30:31;9.40;99.90
3156;DHT22;1588;50.892;7.082;2023-02-23T13:35:34;9.30;99.90
3156;DHT22;1588;50.892;7.082;2023-02-23T13:40:43;9.20;99.90
3156;DHT22;1588;50.892;7.082;2023-02-23T13:45:59;9.30;99.90
3156;DHT22;1588;50.892;7.082;2023-02-23T13:51:07;9.30;99.90
3156;DHT22;1588;50.892;7.082;2023-02-23T13:56:16;9.30;99.90
3156;DHT22;1588;50.892;7.082;2023-02-23T14:01:25;9.30;99.90
3156;DHT22;1588;50.892;7.082;2023-02-23T14:06:32;9.50;99.90
3156;DHT22;1588;50.892;7.082;2023-02-23T14:11:45;9.50;99.90
3156;DHT22;1588;50.892;7.082;2023-02-23T14:22:28;9.10;99.90
3156;DHT22;1588;50.892;7.082;2023-02-23T14:27:40;9.10;99.90
3156;DHT22;1588;50.892;7.082;2023-02-23T14:32:48;9.10;99.90
3156;DHT22;1588;50.892;7.082;2023-02-23T14:37:58;9.30;99.90
3156;DHT22;1588;50.892;7.082;2023-02-23T14:43:02;9.40;99.90
3156;DHT22;1588;50.892;7.082;2023-02-23T14:48:11;9.30;99.90
3156;DHT22;1588;50.892;7.082;2023-02-23T14:53:21;9.30;99.90
3156;DHT22;1588;50.892;7.082;2023-02-23T14:58:34;9.20;99.90
3156;DHT22;1588;50.892;7.082;2023-02-23T15:03:37;9.20;99.90
3156;DHT22;1588;50.892;7.082;2023-02-23T15:08:43;9.10;99.90
3156;DHT22;1588;50.892;7.082;2023-02-23T15:13:47;9.10;99.90
3156;DHT22;1588;50.892;7.082;2023-02-23T15:19:29;9.20;99.90
3156;DHT22;1588;50.892;7.082;2023-02-23T15:24:42;9.20;99.90
3156;DHT22;1588;50.892;7.082;2023-02-23T15:29:45;9.20;99.90
3156;DHT22;1588;50.892;7.082;2023-02-23T15:34:51;9.20;99.90
3156;DHT22;1588;50.892;7.082;2023-02-23T15:39:59;9.20;99.90
3156;DHT22;1588;50.892;7.082;2023-02-23T15:45:12;9.10;99.90
3156;DHT22;1588;50.892;7.082;2023-02-23T15:50:17;9.10;99.90
3156;DHT22;1588;50.892;7.082;2023-02-23T15:55:26;9.10;99.90
3156;DHT22;1588;50.892;7.082;2023-02-23T16:00:32;9.10;99.90
3156;DHT22;1588;50.892;7.082;2023-02-23T16:05:35;9.10;99.90
3156;DHT22;1588;50.892;7.082;2023-02-23T16:10:43;9.00;99.90
3156;DHT22;1588;50.892;7.082;2023-02-23T16:15:48;8.90;99.90
3156;DHT22;1588;50.892;7.082;2023-02-23T16:20:53;8.80;99.90
3156;DHT22;1588;50.892;7.082;2023-02-23T16:26:04;8.90;99.90
3156;DHT22;1588;50.892;7.082;2023-02-23T16:31:08;8.80;99.90
3156;DHT22;1588;50.892;7.082;2023-02-23T16:36:18;8.70;99.90
3156;DHT22;1588;50.892;7.082;2023-02-23T16:41:23;8.80;99.90
3156;DHT22;1588;50.892;7.082;2023-02-23T16:46:31;8.70;99.90
3156;DHT22;1588;50.892;7.082;2023-02-23T16:51:39;8.70;99.90
3156;DHT22;1588;50.892;7.082;2023-02-23T16:56:43;8.70;99.90
3156;DHT22;1588;50.892;7.082;2023-02-23T17:01:47;8.60;99.90
3156;DHT22;1588;50.892;7.082;2023-02-23T17:06:50;8.70;99.90
3156;DHT22;1588;50.892;7.082;2023-02-23T17:11:59;8.60;99.90
3156;DHT22;1588;50.892;7.082;2023-02-23T17:17:01;8.60;99.90
3156;DHT22;1588;50.892;7.082;2023-02-23T17:22:03;8.60;99.90
3156;DHT22;1588;50.892;7.082;2023-02-23T17:27:12;8.50;99.90
3156;DHT22;1588;50.892;7.082;2023-02-23T17:32:15;8.40;99.90
3156;DHT22;1588;50.892;7.082;2023-02-23T17:37:17;8.30;99.90
3156;DHT22;1588;50.892;7.082;2023-02-23T17:42:21;8.30;99.90
3156;DHT22;1588;50.892;7.082;2023-02-23T17:47:35;8.20;99.90
3156;DHT22;1588;50.892;7.082;2023-02-23T17:52:39;8.20;99.90
3156;DHT22;1588;50.892;7.082;2023-02-23T17:57:46;8.20;99.90
3156;DHT22;1588;50.892;7.082;2023-02-23T18:02:49;8.20;99.90
3156;DHT22;1588;50.892;7.082;2023-02-23T18:07:51;8.20;99.90
3156;DHT22;1588;50.892;7.082;2023-02-23T18:12:55;8.20;99.90
3156;DHT22;1588;50.892;7.082;2023-02-23T18:17:57;8.20;99.90
3156;DHT22;1588;50.892;7.082;2023-02-23T18:23:01;8.20;99.90
3156;DHT22;1588;50.892;7.082;2023-02-23T18:28:06;8.20;99.90
3156;DHT22;1588;50.892;7.082;2023-02-23T18:33:10;8.20;99.90
3156;DHT22;1588;50.892;7.082;2023-02-23T18:38:13;8.20;99.90
3156;DHT22;1588;50.892;7.082;2023-02-23T18:43:22;8.20;99.90
3156;DHT22;1588;50.892;7.082;2023-02-23T18:48:26;8.20;99.90
3156;DHT22;1588;50.892;7.082;2023-02-23T18:53:40;8.20;99.90
3156;DHT22;1588;50.892;7.082;2023-02-23T18:58:53;8.20;99.90
3156;DHT22;1588;50.892;7.082;2023-02-23T19:03:58;8.20;99.90
3156;DHT22;1588;50.892;7.082;2023-02-23T19:09:02;8.20;99.90
3156;DHT22;1588;50.892;7.082;2023-02-23T19:14:11;8.20;99.90
3156;DHT22;1588;50.892;7.082;2023-02-23T19:19:15;8.10;99.90
3156;DHT22;1588;50.892;7.082;2023-02-23T19:24:18;8.10;99.90
3156;DHT22;1588;50.892;7.082;2023-02-23T19:29:22;8.10;99.90
3156;DHT22;1588;50.892;7.082;2023-02-23T19:34:26;8.10;99.90
3156;DHT22;1588;50.892;7.082;2023-02-23T19:39:29;8.00;99.90
3156;DHT22;1588;50.892;7.082;2023-02-23T19:44:35;8.10;99.90
3156;DHT22;1588;50.892;7.082;2023-02-23T19:49:38;8.00;99.90
3156;DHT22;1588;50.892;7.082;2023-02-23T19:54:40;8.00;99.90
3156;DHT22;1588;50.892;7.082;2023-02-23T19:59:45;8.00;99.90
3156;DHT22;1588;50.892;7.082;2023-02-23T20:04:48;8.00;99.90
3156;DHT22;1588;50.892;7.082;2023-02-23T20:09:51;8.00;99.90
3156;DHT22;1588;50.892;7.082;2023-02-23T20:15:12;8.00;99.90
3156;DHT22;1588;50.892;7.082;2023-02-23T20:20:20;8.00;99.90
3156;DHT22;1588;50.892;7.082;2023-02-23T20:25:28;8.00;99.90
3156;DHT22;1588;50.892;7.082;2023-02-23T20:30:31;7.90;99.90
3156;DHT22;1588;50.892;7.082;2023-02-23T20:35:36;7.90;99.90
3156;DHT22;1588;50.892;7.082;2023-02-23T20:40:41;7.90;99.90
3156;DHT22;1588;50.892;7.082;2023-02-23T20:45:46;7.80;99.90
3156;DHT22;1588;50.892;7.082;2023-02-23T20:50:52;7.80;99.90
3156;DHT22;1588;50.892;7.082;2023-02-23T20:55:55;7.70;99.90
3156;DHT22;1588;50.892;7.082;2023-02-23T21:00:59;7.70;99.90
3156;DHT22;1588;50.892;7.082;2023-02-23T21:06:23;7.70;99.90
3156;DHT22;1588;50.892;7.082;2023-02-23T21:11:26;7.70;99.90
3156;DHT22;1588;50.892;7.082;2023-02-23T21:16:32;7.70;99.90
3156;DHT22;1588;50.892;7.082;2023-02-23T21:21:43;7.70;99.90
3156;DHT22;1588;50.892;7.082;2023-02-23T21:26:46;7.70;99.90
3156;DHT22;1588;50.892;7.082;2023-02-23T21:31:49;7.60;99.90
3156;DHT22;1588;50.892;7.082;2023-02-23T21:36:52;7.60;99.90
3156;DHT22;1588;50.892;7.082;2023-02-23T21:42:00;7.60;99.90
3156;DHT22;1588;50.892;7.082;2023-02-23T21:47:04;7.60;99.90
3156;DHT22;1588;50.892;7.082;2023-02-23T21:52:07;7.60;99.90
3156;DHT22;1588;50.892;7.082;2023-02-23T21:57:10;7.50;99.90
3156;DHT22;1588;50.892;7.082;2023-02-23T22:02:15;7.50;99.90
3156;DHT22;1588;50.892;7.082;2023-02-23T22:07:18;7.40;99.90
3156;DHT22;1588;50.892;7.082;2023-02-23T22:12:31;7.40;99.90
3156;DHT22;1588;50.892;7.082;2023-02-23T22:17:35;7.40;99.90
3156;DHT22;1588;50.892;7.082;2023-02-23T22:22:40;7.30;99.90
3156;DHT22;1588;50.892;7.082;2023-02-23T22:27:43;7.20;99.90
3156;DHT22;1588;50.892;7.082;2023-02-23T22:32:47;7.20;99.90
3156;DHT22;1588;50.892;7.082;2023-02-23T22:37:50;7.10;99.90
3156;DHT22;1588;50.892;7.082;2023-02-23T22:42:59;7.10;99.90
3156;DHT22;1588;50.892;7.082;2023-02-23T22:48:13;7.20;99.90
3156;DHT22;1588;50.892;7.082;2023-02-23T22:53:21;7.20;99.90
3156;DHT22;1588;50.892;7.082;2023-02-23T22:58:33;7.20;99.90
3156;DHT22;1588;50.892;7.082;2023-02-23T23:03:54;7.10;99.90
3156;DHT22;1588;50.892;7.082;2023-02-23T23:08:58;7.00;99.90
3156;DHT22;1588;50.892;7.082;2023-02-23T23:14:07;7.00;99.90
3156;DHT22;1588;50.892;7.082;2023-02-23T23:19:17;7.00;99.90
3156;DHT22;1588;50.892;7.082;2023-02-23T23:24:24;7.00;99.90
3156;DHT22;1588;50.892;7.082;2023-02-23T23:29:32;7.00;99.90
3156;DHT22;1588;50.892;7.082;2023-02-23T23:34:42;7.10;99.90
3156;DHT22;1588;50.892;7.082;2023-02-23T23:39:47;7.10;99.90
3156;DHT22;1588;50.892;7.082;2023-02-23T23:45:06;7.20;99.90
3156;DHT22;1588;50.892;7.082;2023-02-23T23:50:13;7.20;99.90
3156;DHT22;1588;50.892;7.082;2023-02-23T23:55:21;7.20;99.90
